Results by/Résultats par Info:[email protected] Phone: (613)260-0994

                                     K-TOWN TRIATHLON

                                  Sunday August 6th, 2000
                           Confederation Park, Kingston, Ontario

                                Overall Results - Duathlon

  -----FINAL----- ----------------------- ------------ -------------------- ----            4km                         32 km                   7.2 km
                                                       Category                     --------RUN-----------    ----------BIKE--------    ---------RUN----------
    Pos     Time  Name                    City         Plc/Total Category     #      Cat  Ovr  Time     km     Cat Ovr Time  km/hr      Cat  Ovr  Time     km
  ------  ------- ----------------------- ------------ -------------------- ----    ----------------------    ----------------------    ----------------------
    1     1:24:08 Tim Blackwell           Kingston       1/2   Elite Men     511    1      1   13:01  3:16    1      1   47:03  40.8     1      1   24:06  3:21 
    2     1:32:18 Bradley Frenette        Kingston       2/2   Elite Men     505    2      2   14:22  3:36    2      3   50:10  38.3     2      3   27:47  3:52 
    3     1:35:19 Rob Droughan            Toronto        1/5   M40 - 44      918    1      7   15:50  3:58    1      2   49:00  39.2     2     12   30:30  4:15 
    4     1:35:24 John Fee                Ottawa         1/4   M20 - 24      814    1      6   15:40  3:55    1      4   50:26  38.1     1      6   29:19  4:05 
    5     1:36:09 Derek HACKSHAW          Newmarket      1/8   M30 - 34     8003    1      3   14:32  3:38    5     15   55:15  34.8     1      2   26:24  3:40 
    6     1:37:59 Brent LEONARD           Ottawa         1/5   M35 - 39      930    2     10   16:02  4:01    1      9   53:22  36.0     1      4   28:36  3:59 
    7     1:38:53 Bill McLennan           Almonte        2/5   M40 - 44      691    2     18   17:20  4:20    2      5   51:52  37.0     1      7   29:42  4:08 
    8     1:39:00 Cam Miller              Kingston       2/8   M30 - 34      831    4     11   16:06  4:02    1      6   52:48  36.4     2     10   30:07  4:11 
    9     1:40:15 Philip Chan             Kingston       2/4   M20 - 24      784    2     12   16:13  4:04    2     11   54:12  35.4     2      8   29:52  4:09 
   10     1:40:24 Lynda Hickman           Kanata         1/1   W50 - 54      748    1     15   16:39  4:10    1      8   53:06  36.2     1     14   30:40  4:16 
   11     1:40:25 Curtis Monnier          Kingston       3/8   M30 - 34      707    2      5   15:40  3:55    3     12   54:17  35.4     3     11   30:29  4:15 
   12     1:42:23 David Sly               Kingston       4/8   M30 - 34      912    6     17   17:06  4:17    2      7   52:59  36.2     6     20   32:19  4:30 
   13     1:42:51 David Brown             Kanata         5/8   M30 - 34      874    5     13   16:14  4:04    4     13   54:38  35.2     5     19   32:00  4:27 
   14     1:42:59 Eric Lindenberg         Belleville     3/5   M40 - 44      865    3     21   17:30  4:23    3     10   54:09  35.5     3     16   31:21  4:22 
   15     1:43:03 Brian Lansdowne         Plainfield     1/3   M50 - 54      645    1     16   16:41  4:11    1     18   56:23  34.1     1      9   29:59  4:10 
   16     1:43:24 Matthew Sheffield       Portland       1/1   Junior Men    775    1      4   14:54  3:44    1     26   59:27  32.3     1      5   29:04  4:03 
   17     1:44:11 Ian Joiner              Toronto        6/8   M30 - 34      641    3      8   15:53  3:59    7     19   56:36  33.9     4     18   31:42  4:25 
   18     1:44:11 Jim Forbes              Belleville     1/3   M45 - 49      804    1     22   17:31  4:23    2     16   56:00  34.3     1     15   30:41  4:16 
   19     1:46:40 Ian Thorpe              Carleton Pla   2/3   M45 - 49      658    2     26   17:57  4:30    1     14   54:50  35.0     2     24   33:53  4:43 
   20     1:47:38 Reynald Piche           Orleans        2/5   M35 - 39      860    3     23   17:35  4:24    3     21   57:14  33.6     3     21   32:50  4:34 
   21     1:49:54 Patrick Foran           Tweed          3/4   M20 - 24      920    3     14   16:28  4:07    3     25   59:27  32.3     3     25   34:00  4:44 
   22     1:50:43 David O'Connor          Kingston       7/8   M30 - 34      787    7     25   17:50  4:28    6     17   56:22  34.1     7     31   36:32  5:05 
   23     1:50:48 Clifford LaFontaine     Chateauguay    3/5   M35 - 39      725    1      9   15:56  3:59    4     32 1:04:18  29.9     2     13   30:35  4:15 
   24     1:51:28 Lee-Anne Laverty        Kingston       1/3   W30 - 34      867    1     30   19:11  4:48    1     22   57:31  33.4     2     27   34:47  4:50 
   25     1:52:34 Mike O'Neill            Toronto        4/5   M35 - 39      526    4     35   19:35  4:54    2     20   56:39  33.9     4     30   36:21  5:03 
   26     1:53:04 Joan Scibetta           Brewerton      1/1   W35 - 39      594    1     27   18:26  4:37    1     27 1:00:14  31.9     1     26   34:24  4:47 
   27     1:54:07 John Collins            Oshawa         2/3   M50 - 54      921    2     28   19:00  4:45    2     23   58:04  33.1     2     34   37:04  5:09 
   28     1:55:02 Cindy Phelar            Montreal       1/1   W20 - 24      782    1     29   19:05  4:47    1     29 1:00:41  31.6     1     28   35:17  4:54 
   29     1:56:24 Barry Campbell          RR1 Verona     4/5   M40 - 44      635    5     31   19:13  4:49    4     24   58:25  32.9     5     36   38:47  5:24 
   30     1:56:47 Greg Lamb               Nepean         5/5   M40 - 44      774    4     24   17:37  4:25    5     36 1:07:47  28.3     4     17   31:24  4:22 
   31     1:56:54 Guy Dutil               Kingston       3/3   M50 - 54      862    3     32   19:20  4:50    3     28 1:00:30  31.7     3     35   37:05  5:09 
   32     1:59:23 Kate Hart               Ottawa         1/2   W40 - 44      792    1     37   20:07  5:02    1     31 1:03:37  30.2     1     29   35:40  4:58 
   33     1:59:27 Elise Derbyshire        London         2/3   W30 - 34      542    3     36   19:54  4:59    3     35 1:06:43  28.8     1     22   32:50  4:34 
   34     1:59:30 Gregg Milne             Kingston       4/4   M20 - 24      708    4     19   17:25  4:22    4     30 1:02:13  30.9     4     38   39:53  5:33 
   35     2:05:02 Shannon Thompson        Kingston       3/3   W30 - 34      833    2     34   19:30  4:53    2     33 1:06:11  29.0     3     37   39:22  5:29 
   36     2:06:24 Ed Plantinga            Hamilton       3/3   M45 - 49      823    3     33   19:22  4:51    3     37 1:10:13  27.4     3     32   36:50  5:07 
   37     2:07:37 Larry Milosevic         Toronto        5/5   M35 - 39      560    5     38   20:23  5:06    5     38 1:10:16  27.3     5     33   36:59  5:09 
   38     2:10:08 Richard Sowery          Kingston       1/2   M25 - 29      853    1     20   17:28  4:22    2     41 1:19:01  24.3     1     23   33:40  4:41 
   39     2:14:21 Tim Thompson            Kingston       8/8   M30 - 34      915    8     39   21:33  5:24    8     39 1:11:16  26.9     8     39   41:32  5:47 
   40     2:19:49 Kirsten Courtenay       Kingston       1/1   W25 - 29      839    1     41   23:13  5:49    1     34 1:06:37  28.8     1     41   50:00  6:57 
   41     2:28:10 Paul Micsko             Kingston       2/2   M25 - 29      720    2     42   23:41  5:56    1     40 1:12:47  26.4     2     42   51:44  7:12 
   42     2:32:50 Ruth Bernardi           Kingston       2/2   W40 - 44      621    2     40   22:26  5:37    2     42 1:28:05  21.8     2     40   42:19  5:53